Time;durP1;ratioP1;P1;durP2;ratioP2;P2;SDS_P1;SDS_P2;PMS_P1;PMS_P2;Temp;Humidity;BMP_temperature;BMP_pressure;BME280_temperature;BME280_humidity;BME280_pressure;Samples;Min_cycle;Max_cycle;Signal;HPM_P1;HPM_P2
2022/08/21 00:03:02;;;;;;;13.28;11.90;;;;;;;20.18;83.94;99921.92;1982588;89;31073;-62
2022/08/21 00:06:08;;;;;;;14.68;12.90;;;;;;;20.19;84.00;99917.33;1982271;89;33006;-62
2022/08/21 00:09:16;;;;;;;14.50;13.10;;;;;;;20.17;83.99;99913.41;1979752;89;29368;-63
2022/08/21 00:12:23;;;;;;;16.07;14.40;;;;;;;20.16;83.87;99916.25;1961135;89;28019;-62
2022/08/21 00:15:31;;;;;;;12.45;11.18;;;;;;;20.13;83.79;99916.55;1961857;90;28750;-67
2022/08/21 00:18:42;;;;;;;17.52;15.05;;;;;;;20.09;83.83;99905.62;1961460;90;31014;-63
2022/08/21 00:21:49;;;;;;;15.53;13.93;;;;;;;20.06;83.91;99898.60;1961134;89;29741;-62
2022/08/21 00:24:54;;;;;;;16.20;13.72;;;;;;;20.01;83.96;99905.85;1961436;90;29326;-62
2022/08/21 00:28:04;;;;;;;16.80;14.98;;;;;;;19.96;83.98;99905.42;1961405;90;27875;-62
2022/08/21 00:31:11;;;;;;;15.98;14.38;;;;;;;19.90;84.22;99906.03;1960528;90;27918;-62
2022/08/21 00:34:20;;;;;;;15.95;14.25;;;;;;;19.87;84.33;99904.96;1960521;90;31046;-62
2022/08/21 00:37:32;;;;;;;16.40;14.70;;;;;;;19.85;84.46;99891.49;1960311;90;34199;-63
2022/08/21 00:40:45;;;;;;;19.80;15.20;;;;;;;19.80;84.28;99884.76;1942424;90;27975;-62
2022/08/21 00:43:58;;;;;;;19.02;15.75;;;;;;;19.77;84.48;99891.35;1960375;90;27459;-63
2022/08/21 00:47:09;;;;;;;18.05;14.93;;;;;;;19.73;84.59;99898.95;1960293;90;28887;-63
2022/08/21 00:50:39;;;;;;;17.05;15.13;;;;;;;19.70;84.53;99896.52;1987716;89;27991;-63
2022/08/21 00:53:51;;;;;;;22.45;15.05;;;;;;;19.70;84.68;99898.36;1987751;88;33023;-63
2022/08/21 00:57:00;;;;;;;17.42;14.60;;;;;;;19.65;84.69;99893.88;1998601;88;29527;-63
2022/08/21 01:00:10;;;;;;;17.85;14.40;;;;;;;19.65;84.78;99893.88;1998904;88;27931;-62
2022/08/21 01:03:20;;;;;;;17.15;13.93;;;;;;;19.61;84.74;99896.02;1998761;88;28820;-62
2022/08/21 01:06:30;;;;;;;14.87;13.28;;;;;;;19.59;84.86;99898.89;1998483;88;31187;-62
2022/08/21 01:09:40;;;;;;;17.62;14.25;;;;;;;19.58;84.93;99889.02;1998663;88;29829;-62
2022/08/21 01:12:49;;;;;;;19.07;13.35;;;;;;;19.58;85.06;99896.33;1999096;88;29341;-63
2022/08/21 01:16:00;;;;;;;14.90;13.30;;;;;;;19.59;85.10;99889.89;1998877;88;28024;-62
2022/08/21 01:19:08;;;;;;;16.95;14.43;;;;;;;19.57;85.13;99891.38;1998309;88;28747;-62
2022/08/21 01:22:20;;;;;;;14.73;13.15;;;;;;;19.57;85.16;99886.45;1997894;88;32278;-62
2022/08/21 01:25:27;;;;;;;15.35;13.70;;;;;;;19.55;85.13;99882.52;1998502;88;32968;-63
2022/08/21 01:28:37;;;;;;;19.75;12.93;;;;;;;19.54;85.15;99877.23;1998262;88;29341;-63
2022/08/21 01:31:45;;;;;;;14.75;12.75;;;;;;;19.51;85.04;99868.01;1954307;90;27996;-63
2022/08/21 01:34:53;;;;;;;14.63;11.33;;;;;;;19.48;85.18;99854.22;1988041;89;28711;-61
2022/08/21 01:38:00;;;;;;;14.40;12.10;;;;;;;19.47;85.19;99848.92;1988297;89;31002;-63
2022/08/21 01:41:09;;;;;;;13.88;11.25;;;;;;;19.40;85.17;99827.78;1988337;88;33005;-62
2022/08/21 01:44:22;;;;;;;15.72;11.40;;;;;;;19.37;85.24;99813.61;1987923;88;29810;-63
2022/08/21 01:47:28;;;;;;;11.03;9.33;;;;;;;19.34;85.36;99806.62;1998863;88;28009;-62
2022/08/21 01:50:37;;;;;;;11.57;8.85;;;;;;;19.28;85.30;99803.12;2054621;85;28664;-62
2022/08/21 01:53:49;;;;;;;10.48;7.78;;;;;;;19.27;85.46;99804.15;2060503;86;31492;-62
2022/08/21 01:57:02;;;;;;;8.90;7.58;;;;;;;19.24;85.46;99807.15;2060653;85;33398;-62
2022/08/21 02:00:11;;;;;;;11.55;7.12;;;;;;;19.20;85.41;99813.86;2061175;85;29337;-62
2022/08/21 02:03:16;;;;;;;9.18;7.12;;;;;;;19.18;85.52;99815.38;2061050;85;27899;-62
2022/08/21 02:06:24;;;;;;;7.35;6.65;;;;;;;19.15;85.33;99816.14;2061011;86;28623;-63
2022/08/21 02:09:37;;;;;;;6.87;6.20;;;;;;;19.11;85.41;99823.73;2060749;86;31064;-62
2022/08/21 02:12:44;;;;;;;7.70;6.90;;;;;;;19.08;85.33;99826.23;2060572;85;33015;-62
2022/08/21 02:15:54;;;;;;;8.70;6.43;;;;;;;19.05;85.36;99825.64;2061283;86;29333;-63
2022/08/21 02:19:06;;;;;;;7.78;7.08;;;;;;;19.05;85.36;99825.64;2060714;86;27951;-63
2022/08/21 02:22:16;;;;;;;10.50;7.28;;;;;;;19.04;85.49;99828.00;2060653;86;29076;-62
2022/08/21 02:25:27;;;;;;;10.15;7.12;;;;;;;18.98;85.44;99817.22;2060987;86;31065;-63
2022/08/21 02:28:36;;;;;;;8.80;6.58;;;;;;;18.97;85.58;99811.43;2060633;86;28933;-62
2022/08/21 02:31:46;;;;;;;7.22;5.85;;;;;;;18.94;85.59;99799.02;2014711;88;30653;-62
2022/08/21 02:34:54;;;;;;;5.85;5.33;;;;;;;18.90;85.61;99797.55;2000930;88;27889;-63
2022/08/21 02:38:08;;;;;;;8.98;5.92;;;;;;;18.90;85.62;99796.70;2014867;88;53063;-63
2022/08/21 02:41:18;;;;;;;6.55;4.83;;;;;;;18.85;85.66;99805.28;2014770;88;31476;-62
2022/08/21 02:44:22;;;;;;;6.80;4.10;;;;;;;18.82;85.61;99809.63;2001288;88;33000;-62
2022/08/21 02:47:31;;;;;;;4.42;3.98;;;;;;;18.81;85.67;99805.20;2015342;88;29374;-62
2022/08/21 02:50:43;;;;;;;8.63;3.87;;;;;;;18.78;85.81;99805.47;2009717;88;28249;-63
2022/08/21 02:53:52;;;;;;;3.83;3.52;;;;;;;18.75;85.70;99812.05;1975040;89;28752;-63
2022/08/21 02:57:03;;;;;;;3.87;3.58;;;;;;;18.72;85.76;99814.17;1975377;89;31040;-62
2022/08/21 03:00:10;;;;;;;6.00;3.17;;;;;;;18.71;85.89;99809.73;1975361;89;32991;-63
2022/08/21 03:03:16;;;;;;;5.72;2.80;;;;;;;18.69;85.81;99812.61;1954918;88;27946;-63
2022/08/21 03:06:24;;;;;;;6.37;2.87;;;;;;;18.61;85.75;99811.11;2009152;88;27905;-63
2022/08/21 03:09:29;;;;;;;3.42;2.50;;;;;;;18.61;85.84;99809.23;2008586;88;28690;-63
2022/08/21 03:12:41;;;;;;;4.28;2.50;;;;;;;18.58;85.89;99810.03;2009079;88;31035;-63
2022/08/21 03:15:45;;;;;;;3.58;2.67;;;;;;;18.56;85.96;99812.02;2006912;88;33207;-63
2022/08/21 03:18:52;;;;;;;2.62;2.30;;;;;;;18.51;85.95;99811.94;2008383;88;30608;-63
2022/08/21 03:22:03;;;;;;;2.95;2.75;;;;;;;18.49;85.95;99811.73;2009009;88;27823;-62
2022/08/21 03:25:14;;;;;;;2.90;2.70;;;;;;;18.49;86.03;99811.73;2008568;88;28643;-63
2022/08/21 03:28:21;;;;;;;3.22;2.92;;;;;;;18.46;85.98;99804.70;2008346;88;31133;-64
2022/08/21 03:31:30;;;;;;;3.37;3.08;;;;;;;18.44;85.96;99805.85;2008303;88;33018;-63
2022/08/21 03:34:38;;;;;;;3.20;2.92;;;;;;;18.42;86.01;99814.62;2008360;88;29509;-63
2022/08/21 03:37:42;;;;;;;4.50;3.20;;;;;;;18.38;86.08;99819.47;2008599;88;27893;-63
2022/08/21 03:40:46;;;;;;;6.65;2.55;;;;;;;18.36;86.25;99821.46;2008738;88;28653;-63
2022/08/21 03:43:52;;;;;;;3.75;3.42;;;;;;;18.35;86.25;99822.45;2008652;88;31027;-63
2022/08/21 03:47:00;;;;;;;4.95;4.15;;;;;;;18.33;86.25;99824.45;2008187;88;33043;-63
2022/08/21 03:50:05;;;;;;;5.20;3.98;;;;;;;18.29;86.33;99825.23;1985066;88;30756;-64
2022/08/21 03:53:12;;;;;;;;;;;;;;;18.28;86.35;99828.09;2017176;88;27902;-63
2022/08/21 03:56:21;;;;;;;4.47;4.15;;;;;;;18.26;86.44;99827.37;2014717;88;28678;-64
2022/08/21 03:59:28;;;;;;;4.10;3.80;;;;;;;18.23;86.54;99821.70;2014646;88;31245;-63
2022/08/21 04:02:34;;;;;;;4.60;4.03;;;;;;;18.20;86.63;99841.83;2015024;88;32955;-64
2022/08/21 04:05:44;;;;;;;5.72;3.58;;;;;;;18.18;86.62;99838.39;2015064;88;29293;-63
2022/08/21 04:08:49;;;;;;;5.10;3.90;;;;;;;18.16;86.69;99840.37;2014730;88;27966;-63
2022/08/21 04:11:56;;;;;;;4.00;3.70;;;;;;;18.16;86.61;99836.82;2015115;88;28655;-63
2022/08/21 04:15:06;;;;;;;4.25;3.85;;;;;;;18.14;86.67;99847.78;2009067;88;31039;-63
2022/08/21 04:18:13;;;;;;;3.90;3.58;;;;;;;18.14;86.86;99841.52;2015133;88;33027;-63
2022/08/21 04:21:18;;;;;;;4.70;4.30;;;;;;;18.13;86.73;99849.29;2015060;88;29402;-64
2022/08/21 04:24:27;;;;;;;;;;;;;;;18.11;86.78;99852.14;2017488;87;28091;-64
2022/08/21 04:27:35;;;;;;;4.80;4.40;;;;;;;18.09;86.94;99846.00;2015165;88;28871;-63
2022/08/21 04:30:44;;;;;;;4.87;4.30;;;;;;;18.06;87.14;99840.33;2014846;88;27906;-64
2022/08/21 04:33:56;;;;;;;4.33;3.92;;;;;;;18.05;87.14;99839.13;2015004;88;32958;-64
2022/08/21 04:37:03;;;;;;;4.83;4.33;;;;;;;18.05;87.17;99841.33;2014641;88;29539;-64
2022/08/21 04:40:17;;;;;;;4.37;3.62;;;;;;;18.06;87.29;99846.27;2015201;88;27823;-64
2022/08/21 04:43:28;;;;;;;3.83;3.52;;;;;;;18.05;87.46;99848.61;2014808;88;27990;-64
2022/08/21 04:46:33;;;;;;;4.12;3.77;;;;;;;18.03;87.43;99839.75;2014745;88;31086;-64
2022/08/21 04:49:43;;;;;;;3.98;3.35;;;;;;;18.03;87.67;99844.70;2013299;88;32970;-64
2022/08/21 04:52:51;;;;;;;4.78;4.33;;;;;;;18.01;87.52;99848.03;2006323;87;29373;-64
2022/08/21 04:55:57;;;;;;;4.08;3.77;;;;;;;18.00;87.61;99849.03;2006258;88;27971;-63
2022/08/21 04:59:18;;;;;;;4.12;3.70;;;;;;;18.01;87.74;99843.09;2005888;87;28702;-64
2022/08/21 05:02:27;;;;;;;3.62;3.33;;;;;;;18.01;87.80;99838.55;2016162;87;31061;-64
2022/08/21 05:05:37;;;;;;;4.75;3.75;;;;;;;18.00;87.84;99844.96;2015902;87;29802;-64
2022/08/21 05:08:47;;;;;;;3.70;3.37;;;;;;;18.00;87.87;99853.58;2016069;88;29341;-62
2022/08/21 05:11:58;;;;;;;3.33;3.10;;;;;;;18.01;87.92;99856.64;2015837;87;27974;-63
2022/08/21 05:15:06;;;;;;;3.65;3.35;;;;;;;18.02;87.94;99858.37;2016084;87;28705;-63
2022/08/21 05:18:10;;;;;;;3.90;3.60;;;;;;;18.03;88.12;99853.31;2016499;87;31209;-63
2022/08/21 05:21:18;;;;;;;3.83;3.47;;;;;;;18.01;88.11;99853.45;2016875;87;32957;-63
2022/08/21 05:24:25;;;;;;;4.37;3.77;;;;;;;18.01;88.13;99864.30;2016886;88;29337;-63
2022/08/21 05:27:33;;;;;;;4.25;3.85;;;;;;;18.01;88.30;99864.30;2005721;87;27808;-63
2022/08/21 05:30:42;;;;;;;5.33;4.00;;;;;;;18.00;88.17;99867.12;2005921;88;28688;-63
2022/08/21 05:33:52;;;;;;;3.72;3.42;;;;;;;17.98;88.33;99869.98;2005427;88;31463;-63
2022/08/21 05:37:03;;;;;;;3.98;3.67;;;;;;;17.96;88.25;99873.29;2005580;88;33066;-63
2022/08/21 05:40:13;;;;;;;4.05;3.60;;;;;;;17.96;88.27;99887.32;2016694;87;28043;-63
2022/08/21 05:43:18;;;;;;;4.78;3.50;;;;;;;17.94;88.16;99895.59;2017058;88;27803;-63
2022/08/21 05:46:22;;;;;;;5.92;3.42;;;;;;;17.92;88.19;99895.74;2006160;88;28690;-63
2022/08/21 05:49:27;;;;;;;3.58;3.00;;;;;;;17.90;88.62;99900.44;2005606;86;31104;-64
2022/08/21 05:52:40;;;;;;;3.77;3.02;;;;;;;17.86;89.21;99890.84;2011785;88;33010;-63
2022/08/21 05:55:53;;;;;;;5.47;3.45;;;;;;;17.80;89.04;99888.66;2011871;88;27931;-63
2022/08/21 05:59:05;;;;;;;4.70;2.98;;;;;;;17.75;89.59;99893.64;2011985;87;28031;-64
2022/08/21 06:02:12;;;;;;;5.50;2.87;;;;;;;17.68;89.22;99879.77;2011856;87;27936;-63
2022/08/21 06:05:21;;;;;;;3.55;3.22;;;;;;;17.62;89.36;99887.06;2012388;88;31064;-63
2022/08/21 06:08:26;;;;;;;2.50;2.30;;;;;;;17.59;89.52;99899.50;2012837;88;33036;-63
2022/08/21 06:11:36;;;;;;;2.67;2.47;;;;;;;17.56;89.64;99897.05;2012894;88;29321;-63
2022/08/21 06:14:49;;;;;;;3.10;2.80;;;;;;;17.55;89.67;99906.17;2012522;88;27929;-63
2022/08/21 06:17:57;;;;;;;8.40;3.22;;;;;;;17.53;89.79;99905.47;2012158;88;29808;-63
2022/08/21 06:21:04;;;;;;;3.22;2.92;;;;;;;17.54;90.00;99912.09;2012505;88;31260;-63
2022/08/21 06:24:09;;;;;;;;;;;;;;;17.52;89.99;99911.88;2015383;88;32979;-64
2022/08/21 06:27:18;;;;;;;;;;;;;;;17.51;89.94;99918.28;2015128;87;29369;-63
2022/08/21 06:30:27;;;;;;;5.15;3.08;;;;;;;17.48;90.15;99934.27;2012607;88;27911;-63
2022/08/21 06:33:36;;;;;;;3.22;2.92;;;;;;;17.46;90.37;99941.66;2012948;88;28664;-63
2022/08/21 06:36:45;;;;;;;2.80;2.60;;;;;;;17.42;90.52;99949.70;2012529;88;31093;-63
2022/08/21 06:39:51;;;;;;;4.78;2.85;;;;;;;17.41;90.66;99951.53;2012827;88;32934;-63
2022/08/21 06:43:02;;;;;;;13.35;3.12;;;;;;;17.40;90.46;99950.33;2012898;88;29336;-63
2022/08/21 06:46:07;;;;;;;4.92;3.20;;;;;;;17.38;90.64;99953.66;2006904;87;27994;-64
2022/08/21 06:49:12;;;;;;;6.35;3.08;;;;;;;17.36;90.53;99955.15;2012881;87;28643;-64
2022/08/21 06:52:17;;;;;;;4.15;3.75;;;;;;;17.38;90.77;99965.84;2012552;86;31033;-64
2022/08/21 06:55:23;;;;;;;;;;;;;;;17.38;90.64;99961.78;2015305;88;33078;-64
2022/08/21 06:58:33;;;;;;;10.93;3.50;;;;;;;17.38;90.65;99972.61;2012930;88;29418;-64
2022/08/21 07:01:44;;;;;;;8.65;4.03;;;;;;;17.35;90.46;99973.73;2012550;88;27871;-64
2022/08/21 07:04:55;;;;;;;6.25;3.95;;;;;;;17.28;90.17;99982.86;2012334;88;29176;-63
2022/08/21 07:08:03;;;;;;;11.70;4.35;;;;;;;17.12;89.35;99982.41;2012338;88;31071;-63
2022/08/21 07:11:17;;;;;;;10.93;4.47;;;;;;;16.97;89.33;99989.42;2012296;88;29766;-66
2022/08/21 07:14:25;;;;;;;13.15;6.17;;;;;;;16.90;89.37;99994.08;2012619;88;29340;-63
2022/08/21 07:17:37;;;;;;;9.50;5.47;;;;;;;16.83;89.44;99992.37;2012046;88;27904;-64
2022/08/21 07:20:48;;;;;;;7.03;5.25;;;;;;;16.78;89.58;99984.63;2011837;88;29520;-64
2022/08/21 07:23:53;;;;;;;9.18;5.92;;;;;;;16.74;89.77;99989.91;2012088;88;31027;-64
2022/08/21 07:26:57;;;;;;;6.83;5.42;;;;;;;16.74;89.90;99982.30;2011827;88;32963;-64
2022/08/21 07:30:04;;;;;;;8.13;5.35;;;;;;;16.71;90.01;99985.63;2011528;87;29387;-64
2022/08/21 07:33:16;;;;;;;14.30;6.28;;;;;;;16.63;89.60;99980.46;2012559;88;27880;-65
2022/08/21 07:36:27;;;;;;;13.60;5.03;;;;;;;16.53;89.34;99988.45;2012223;88;27861;-64
2022/08/21 07:39:32;;;;;;;9.30;4.92;;;;;;;16.41;89.03;99988.92;2012795;88;31254;-64
2022/08/21 07:42:46;;;;;;;10.23;5.47;;;;;;;16.35;89.03;99998.89;2012159;88;33016;-64
2022/08/21 07:45:54;;;;;;;8.08;4.53;;;;;;;16.29;89.10;100001.59;2012460;88;29391;-65
2022/08/21 07:49:02;;;;;;;10.03;4.78;;;;;;;16.19;88.81;99997.40;2012865;88;27833;-63
2022/08/21 07:52:12;;;;;;;6.83;4.60;;;;;;;16.10;88.95;100003.03;2010440;86;28780;-63
2022/08/21 07:55:21;;;;;;;8.25;5.28;;;;;;;16.05;89.01;100003.87;2009185;88;31066;-63
2022/08/21 07:58:31;;;;;;;10.03;4.80;;;;;;;16.02;88.96;100023.52;2008809;88;33188;-63
2022/08/21 08:01:39;;;;;;;10.20;5.03;;;;;;;15.93;89.01;100030.48;2009259;88;29383;-63
2022/08/21 08:04:49;;;;;;;9.18;4.65;;;;;;;15.92;89.11;100035.52;2008993;87;28007;-62
2022/08/21 08:07:59;;;;;;;7.70;4.78;;;;;;;15.91;89.32;100031.94;2008836;87;27939;-63
2022/08/21 08:11:18;;;;;;;8.38;4.95;;;;;;;15.90;89.31;100030.72;2008872;88;31109;-64
2022/08/21 08:14:27;;;;;;;9.93;4.28;;;;;;;15.87;89.17;100019.67;2008843;87;33150;-64
2022/08/21 08:17:38;;;;;;;7.10;4.55;;;;;;;15.87;89.31;100016.09;2009050;88;29380;-64
2022/08/21 08:20:48;;;;;;;11.22;4.17;;;;;;;15.89;90.03;100015.48;2057529;85;27937;-64
2022/08/21 08:23:58;;;;;;;5.00;4.22;;;;;;;15.90;89.68;100015.86;2057404;86;29423;-63
2022/08/21 08:27:03;;;;;;;6.35;3.60;;;;;;;15.88;89.50;100017.34;2057521;86;31075;-63
2022/08/21 08:30:10;;;;;;;6.67;3.35;;;;;;;15.89;89.57;100021.73;2029270;86;32984;-64
2022/08/21 08:33:17;;;;;;;5.97;4.37;;;;;;;15.87;89.41;100010.69;2057572;86;29346;-63
2022/08/21 08:36:36;;;;;;;7.95;4.00;;;;;;;15.86;89.55;100009.84;2057465;86;27867;-64
2022/08/21 08:39:45;;;;;;;5.78;4.03;;;;;;;15.87;89.63;100009.34;2057319;86;29120;-64
2022/08/21 08:42:53;;;;;;;4.92;3.70;;;;;;;15.91;89.78;100001.38;2057506;86;31029;-64
2022/08/21 08:46:08;;;;;;;4.40;3.60;;;;;;;15.94;89.69;99988.98;2057000;86;33055;-64
2022/08/21 08:49:39;;;;;;;5.72;4.20;;;;;;;16.00;89.83;99987.64;2057057;86;29349;-63
2022/08/21 08:52:58;;;;;;;7.97;4.72;;;;;;;16.06;89.93;99995.25;2066780;85;28072;-63
2022/08/21 08:56:05;;;;;;;8.03;3.83;;;;;;;16.15;90.14;100005.37;2072240;85;28698;-63
2022/08/21 08:59:20;;;;;;;5.90;3.70;;;;;;;16.22;90.18;100000.34;2072663;85;31077;-64
2022/08/21 09:02:33;;;;;;;3.83;3.42;;;;;;;16.29;90.04;100007.47;2072600;85;34319;-63
2022/08/21 09:05:44;;;;;;;5.25;3.30;;;;;;;16.35;89.97;100013.25;2072589;85;29706;-64
2022/08/21 09:09:25;;;;;;;3.55;2.70;;;;;;;16.40;89.96;100012.89;2072662;85;27888;-63
2022/08/21 09:12:48;;;;;;;4.03;3.50;;;;;;;16.47;89.91;100015.48;2072177;85;30082;-63
2022/08/21 09:16:19;;;;;;;3.62;3.00;;;;;;;16.54;89.94;100022.63;2071232;85;31078;-63
2022/08/21 09:19:50;;;;;;;4.50;2.77;;;;;;;16.63;90.02;100028.64;2072104;85;33190;-64
2022/08/21 09:23:22;;;;;;;4.12;2.72;;;;;;;16.72;90.10;100021.63;2067905;85;29767;-64
2022/08/21 09:26:34;;;;;;;3.33;3.02;;;;;;;16.76;89.77;100023.12;2072683;85;27944;-65
2022/08/21 09:29:47;;;;;;;4.85;3.62;;;;;;;16.80;89.35;100027.78;2072625;85;27944;-64
2022/08/21 09:32:51;;;;;;;3.25;2.60;;;;;;;16.85;89.58;100026.92;2072585;85;31101;-64
2022/08/21 09:35:58;;;;;;;4.42;2.70;;;;;;;16.88;89.44;100027.19;2072995;85;32949;-64
2022/08/21 09:39:05;;;;;;;3.62;3.00;;;;;;;16.90;89.39;100029.25;2037509;85;29205;-65
2022/08/21 09:42:20;;;;;;;3.80;3.37;;;;;;;16.95;89.63;100026.60;2072307;85;27905;-65
2022/08/21 09:45:26;;;;;;;3.95;2.50;;;;;;;17.07;89.81;100030.64;2072790;85;29386;-64
2022/08/21 09:48:33;;;;;;;;;;;;;;;17.11;89.41;100028.91;2075562;85;31032;-64
2022/08/21 09:51:39;;;;;;;2.85;2.62;;;;;;;17.13;89.06;100032.83;2069453;85;33226;-64
2022/08/21 09:54:51;;;;;;;3.05;2.50;;;;;;;17.15;88.82;100039.86;2034562;86;29382;-64
2022/08/21 09:57:55;;;;;;;3.50;3.20;;;;;;;17.08;87.78;100037.78;2061187;85;27842;-65
2022/08/21 10:01:07;;;;;;;5.75;3.40;;;;;;;17.06;87.96;100043.80;2061073;86;28708;-65
2022/08/21 10:04:23;;;;;;;3.15;2.85;;;;;;;17.06;87.98;100039.74;2060657;86;31137;-64
2022/08/21 10:07:34;;;;;;;3.42;2.75;;;;;;;17.06;87.76;100040.59;2052836;85;29720;-64
2022/08/21 10:10:45;;;;;;;7.30;3.22;;;;;;;17.03;87.57;100035.45;2060463;86;27947;-65
2022/08/21 10:14:14;;;;;;;4.37;3.33;;;;;;;17.03;87.50;100037.28;2060674;86;27924;-64
2022/08/21 10:17:34;;;;;;;2.98;2.77;;;;;;;17.01;87.29;100038.27;2060649;85;27855;-64
2022/08/21 10:20:56;;;;;;;4.30;3.25;;;;;;;17.02;87.52;100032.38;2061620;85;28041;-64
2022/08/21 10:24:23;;;;;;;3.65;3.25;;;;;;;17.06;87.42;100036.53;2057172;86;33041;-64
2022/08/21 10:28:01;;;;;;;3.85;3.33;;;;;;;17.07;87.22;100032.84;2059866;86;29759;-65
2022/08/21 10:31:36;;;;;;;4.85;3.00;;;;;;;17.07;86.87;100039.61;2060259;86;27914;-65
2022/08/21 10:34:52;;;;;;;3.95;2.77;;;;;;;17.09;87.08;100041.70;2060068;86;28579;-65
2022/08/21 10:38:26;;;;;;;5.65;3.35;;;;;;;17.10;86.67;100038.01;2051565;86;31024;-65
2022/08/21 10:41:50;;;;;;;5.05;3.10;;;;;;;17.10;86.50;100050.70;2060264;86;33015;-65
2022/08/21 10:45:08;;;;;;;5.50;3.15;;;;;;;17.11;86.46;100044.30;2060228;85;29392;-65
2022/08/21 10:48:24;;;;;;;6.53;2.92;;;;;;;17.14;86.58;100043.55;2060759;86;27747;-65
2022/08/21 10:51:41;;;;;;;8.88;3.98;;;;;;;17.18;86.47;100042.80;2059970;86;28692;-65
2022/08/21 10:54:53;;;;;;;6.00;2.60;;;;;;;17.22;86.59;100034.80;2045388;86;31065;-66
2022/08/21 10:58:17;;;;;;;4.22;2.75;;;;;;;17.25;86.09;100041.80;2024644;86;32992;-66
2022/08/21 11:01:37;;;;;;;4.37;2.80;;;;;;;17.25;85.92;100034.55;1973671;88;30732;-66
2022/08/21 11:04:57;;;;;;;4.75;2.58;;;;;;;17.37;86.18;100039.94;1927254;92;28057;-67
2022/08/21 11:08:08;;;;;;;3.47;2.37;;;;;;;17.44;86.09;100035.75;1920256;92;28720;-67
2022/08/21 11:11:39;;;;;;;6.70;3.00;;;;;;;17.53;86.08;100044.95;1927397;92;32039;-64
2022/08/21 11:15:23;;;;;;;5.25;2.83;;;;;;;17.59;86.06;100043.95;1927735;92;33020;-64
2022/08/21 11:18:34;;;;;;;4.97;2.95;;;;;;;17.61;85.31;100048.75;1927035;92;29375;-64
2022/08/21 11:22:00;;;;;;;4.60;2.75;;;;;;;17.56;85.00;100052.80;1927613;92;28014;-65
2022/08/21 11:25:17;;;;;;;4.33;2.77;;;;;;;17.49;84.78;100052.45;1926850;92;29124;-65
2022/08/21 11:28:45;;;;;;;5.03;3.10;;;;;;;17.46;84.95;100054.93;1900511;91;30808;-65
2022/08/21 11:32:11;;;;;;;6.87;3.02;;;;;;;17.41;84.89;100050.37;1927719;92;33519;-65
2022/08/21 11:35:39;;;;;;;6.95;3.40;;;;;;;17.40;85.05;100053.23;1928821;92;30424;-65
2022/08/21 11:39:10;;;;;;;4.30;2.90;;;;;;;17.40;85.06;100054.07;1927818;92;28027;-65
2022/08/21 11:42:45;;;;;;;7.30;4.22;;;;;;;17.39;84.74;100042.02;1956163;89;29076;-65
2022/08/21 11:46:10;;;;;;;4.57;3.17;;;;;;;17.41;85.23;100047.67;1977136;89;31460;-65
2022/08/21 11:49:42;;;;;;;5.50;3.02;;;;;;;17.43;85.19;100044.86;1977613;88;29957;-62
2022/08/21 11:53:13;;;;;;;8.15;3.72;;;;;;;17.47;85.23;100051.71;1944062;89;29545;-62
2022/08/21 11:56:26;;;;;;;5.37;3.37;;;;;;;17.50;85.18;100044.69;1949697;90;28013;-62
2022/08/21 11:59:45;;;;;;;7.55;3.67;;;;;;;17.53;85.03;100042.25;1948908;91;28660;-62
2022/08/21 12:03:09;;;;;;;7.72;3.52;;;;;;;17.53;84.90;100042.25;1949473;90;28233;-62
2022/08/21 12:06:16;;;;;;;4.42;3.45;;;;;;;17.58;84.87;100038.16;1949730;91;33512;-62
2022/08/21 12:09:35;;;;;;;5.50;3.80;;;;;;;17.64;84.82;100046.27;1926830;91;29407;-63
2022/08/21 12:12:47;;;;;;;7.67;3.50;;;;;;;17.67;84.49;100050.55;1950590;91;28030;-63
2022/08/21 12:16:15;;;;;;;7.28;2.92;;;;;;;17.68;84.47;100050.45;1950801;90;28659;-64
2022/08/21 12:19:31;;;;;;;5.62;3.67;;;;;;;17.70;84.18;100058.43;1950623;90;31519;-64
2022/08/21 12:22:40;;;;;;;6.78;3.95;;;;;;;17.72;84.12;100052.39;1950667;90;32977;-64
2022/08/21 12:25:48;;;;;;;5.67;3.75;;;;;;;17.76;84.02;100057.93;1950970;90;29337;-64
2022/08/21 12:29:04;;;;;;;9.38;4.10;;;;;;;17.80;84.08;100059.37;1988136;86;27901;-64
2022/08/21 12:32:21;;;;;;;6.03;3.77;;;;;;;17.83;83.85;100055.05;2045897;86;29308;-64
2022/08/21 12:35:34;;;;;;;8.93;4.20;;;;;;;17.80;83.37;100051.23;2045336;86;31090;-64
2022/08/21 12:39:00;;;;;;;8.20;4.20;;;;;;;17.84;83.66;100047.28;2043948;86;30174;-64
2022/08/21 12:42:13;;;;;;;6.37;4.05;;;;;;;17.88;83.65;100054.17;2045709;86;29143;-62
2022/08/21 12:45:36;;;;;;;6.22;4.05;;;;;;;17.91;83.06;100048.50;2033720;86;27998;-65
2022/08/21 12:49:05;;;;;;;6.62;3.85;;;;;;;17.92;83.19;100046.64;2022455;86;28700;-62
2022/08/21 12:52:33;;;;;;;6.53;3.83;;;;;;;17.94;83.00;100050.08;2038887;85;32366;-62
2022/08/21 12:55:46;;;;;;;10.95;4.58;;;;;;;17.96;82.98;100047.23;1943016;90;33709;-63
2022/08/21 12:59:06;;;;;;;7.45;3.95;;;;;;;17.97;82.97;100047.12;1943138;91;29708;-63
2022/08/21 13:02:19;;;;;;;13.15;8.15;;;;;;;17.99;83.06;100042.46;1943128;90;27971;-64
2022/08/21 13:05:35;;;;;;;8.08;4.53;;;;;;;18.04;82.99;100040.70;1943088;91;28661;-62
2022/08/21 13:08:43;;;;;;;7.12;3.80;;;;;;;18.10;83.05;100037.96;1943216;91;31072;-62
2022/08/21 13:11:57;;;;;;;6.87;4.25;;;;;;;18.18;83.13;100044.45;1942628;91;29856;-64
2022/08/21 13:15:07;;;;;;;7.60;4.80;;;;;;;18.29;83.03;100044.00;1942493;91;29398;-63
2022/08/21 13:18:22;;;;;;;6.05;3.67;;;;;;;18.34;82.81;100042.64;1942963;91;27897;-63
2022/08/21 13:21:45;;;;;;;7.65;3.92;;;;;;;18.40;82.58;100044.44;1942319;91;29178;-63
2022/08/21 13:24:53;;;;;;;4.87;3.70;;;;;;;18.38;82.26;100048.14;1943022;91;31051;-63
2022/08/21 13:28:12;;;;;;;6.35;4.00;;;;;;;18.42;82.37;100045.16;1942840;91;33453;-63
2022/08/21 13:31:20;;;;;;;4.00;3.45;;;;;;;18.48;82.74;100041.92;1949457;86;29404;-63
2022/08/21 13:34:31;;;;;;;6.62;4.40;;;;;;;18.50;82.36;100044.86;2045524;86;27951;-64
2022/08/21 13:37:40;;;;;;;6.97;4.28;;;;;;;18.52;82.23;100045.59;2045725;86;28652;-63
2022/08/21 13:40:58;;;;;;;4.65;3.58;;;;;;;18.56;82.28;100050.24;2045058;86;28676;-65
2022/08/21 13:44:15;;;;;;;6.87;4.15;;;;;;;18.58;82.10;100052.33;2044922;86;33413;-64
2022/08/21 13:47:25;;;;;;;9.40;4.60;;;;;;;18.62;82.18;100047.00;2028104;86;29384;-63
2022/08/21 13:50:39;;;;;;;8.63;5.03;;;;;;;18.67;81.91;100057.45;2045923;86;27968;-63
2022/08/21 13:53:52;;;;;;;7.37;5.87;;;;;;;18.71;82.14;100058.02;2045789;86;28715;-63
2022/08/21 13:56:59;;;;;;;4.50;3.83;;;;;;;18.73;81.95;100055.56;2045706;86;30994;-63
2022/08/21 14:00:28;;;;;;;6.45;4.00;;;;;;;18.72;81.72;100056.55;2045555;86;33090;-63
2022/08/21 14:03:46;;;;;;;8.53;4.08;;;;;;;18.73;82.01;100061.47;2045308;86;29368;-63
2022/08/21 14:06:56;;;;;;;7.10;4.10;;;;;;;18.67;81.68;100061.03;2045178;86;28004;-64
2022/08/21 14:10:05;;;;;;;5.70;4.15;;;;;;;18.68;82.03;100057.81;2045631;86;28674;-63
2022/08/21 14:13:14;;;;;;;6.12;4.03;;;;;;;18.67;82.01;100055.61;2044755;86;31490;-65
2022/08/21 14:16:27;;;;;;;6.55;3.98;;;;;;;18.65;81.85;100056.23;2020485;85;33055;-65
2022/08/21 14:19:46;;;;;;;5.92;4.37;;;;;;;18.62;81.79;100059.69;2045531;86;29435;-66
2022/08/21 14:22:55;;;;;;;6.33;3.92;;;;;;;18.61;81.90;100060.20;2045675;85;27918;-66
2022/08/21 14:26:05;;;;;;;5.22;4.70;;;;;;;18.57;81.84;100061.45;2046207;86;28656;-63
2022/08/21 14:29:15;;;;;;;5.75;4.35;;;;;;;18.56;81.92;100057.53;2045911;86;31102;-65
2022/08/21 14:32:29;;;;;;;8.20;6.62;;;;;;;18.58;81.94;100059.62;2045749;86;29967;-64
2022/08/21 14:35:37;;;;;;;6.22;4.62;;;;;;;18.60;82.03;100061.20;2045821;86;29440;-65
2022/08/21 14:38:45;;;;;;;10.35;5.22;;;;;;;18.64;82.24;100055.87;2046229;86;27916;-65
2022/08/21 14:41:57;;;;;;;5.87;4.25;;;;;;;18.65;82.22;100060.30;2045920;86;28748;-65
2022/08/21 14:45:17;;;;;;;5.30;4.40;;;;;;;18.68;82.12;100052.38;2021665;86;31480;-65
2022/08/21 14:48:25;;;;;;;11.00;5.22;;;;;;;18.67;81.99;100055.61;2045008;86;33066;-66
2022/08/21 14:51:33;;;;;;;8.65;4.75;;;;;;;18.70;82.19;100062.61;2045799;86;29335;-65
2022/08/21 14:54:44;;;;;;;7.47;4.47;;;;;;;18.69;81.96;100060.88;2045233;86;27894;-63
2022/08/21 14:57:55;;;;;;;7.78;4.65;;;;;;;18.68;81.94;100057.33;2045639;86;27854;-65
2022/08/21 15:01:04;;;;;;;5.10;4.28;;;;;;;18.72;81.93;100051.60;2046061;86;31042;-65